createdAt,value
2022-10-04T00:01:36.702Z,9.12
2022-10-04T00:04:02.859Z,9.19
2022-10-04T00:06:28.943Z,9.32
2022-10-04T00:08:55.029Z,9.26
2022-10-04T00:11:21.134Z,9.21
2022-10-04T00:13:47.216Z,9.31
2022-10-04T00:16:13.366Z,9.32
2022-10-04T00:18:39.546Z,9.31
2022-10-04T00:21:05.670Z,9.27
2022-10-04T00:23:31.744Z,9.18
2022-10-04T00:25:57.857Z,9.20
2022-10-04T00:28:23.985Z,9.17
2022-10-04T00:30:50.106Z,9.36
2022-10-04T00:33:16.208Z,9.36
2022-10-04T00:35:42.306Z,9.22
2022-10-04T00:38:08.389Z,9.21
2022-10-04T00:40:34.497Z,9.14
2022-10-04T00:43:00.589Z,9.08
2022-10-04T00:45:26.676Z,9.15
2022-10-04T00:47:53.276Z,9.21
2022-10-04T00:50:19.390Z,9.28
2022-10-04T00:52:45.498Z,9.28
2022-10-04T00:55:11.606Z,9.14
2022-10-04T00:57:37.714Z,9.10
2022-10-04T01:00:03.917Z,9.00
2022-10-04T01:02:30.097Z,9.02
2022-10-04T01:04:56.286Z,9.13
2022-10-04T01:07:22.382Z,9.15
2022-10-04T01:09:48.496Z,9.26
2022-10-04T01:12:14.595Z,9.41
2022-10-04T01:14:40.701Z,9.38
2022-10-04T01:17:06.826Z,9.27
2022-10-04T01:19:32.935Z,9.27
2022-10-04T01:21:59.050Z,9.38
2022-10-04T01:24:25.153Z,9.47
2022-10-04T01:26:51.243Z,9.48
2022-10-04T01:29:17.339Z,9.48
2022-10-04T01:31:44.287Z,9.28
2022-10-04T01:34:10.584Z,9.26
2022-10-04T01:36:36.672Z,9.22
2022-10-04T01:39:02.788Z,9.24
2022-10-04T01:41:28.871Z,9.22
2022-10-04T01:43:54.968Z,9.22
2022-10-04T01:46:21.126Z,9.17
2022-10-04T01:48:47.245Z,9.16
2022-10-04T01:51:13.329Z,9.13
2022-10-04T01:53:39.501Z,9.21
2022-10-04T01:56:05.596Z,9.14
2022-10-04T01:58:31.693Z,9.12
2022-10-04T02:00:57.848Z,9.06
2022-10-04T02:03:23.973Z,9.16
2022-10-04T02:05:50.064Z,9.20
2022-10-04T02:08:16.172Z,9.17
2022-10-04T02:10:43.753Z,9.14
2022-10-04T02:13:09.970Z,9.16
2022-10-04T02:15:36.079Z,9.17
2022-10-04T02:18:02.160Z,9.34
2022-10-04T02:20:28.269Z,9.38
2022-10-04T02:22:54.390Z,9.41
2022-10-04T02:25:20.480Z,9.42
2022-10-04T02:27:46.570Z,9.32
2022-10-04T02:30:12.704Z,9.45
2022-10-04T02:32:38.806Z,9.46
2022-10-04T02:35:04.952Z,9.29
2022-10-04T02:37:31.069Z,9.29
2022-10-04T02:39:57.156Z,9.25
2022-10-04T02:42:23.253Z,9.16
2022-10-04T02:44:49.362Z,9.20
2022-10-04T02:47:15.452Z,9.21
2022-10-04T02:49:41.549Z,9.22
2022-10-04T02:52:08.158Z,9.24
2022-10-04T02:54:34.265Z,9.25
2022-10-04T02:57:00.370Z,9.22
2022-10-04T02:59:26.477Z,9.30
2022-10-04T03:01:52.656Z,9.37
2022-10-04T03:04:18.797Z,9.39
2022-10-04T03:06:44.905Z,9.54
2022-10-04T03:09:10.983Z,9.60
2022-10-04T03:11:37.075Z,9.66
2022-10-04T03:14:03.195Z,9.69
2022-10-04T03:16:29.347Z,9.70
2022-10-04T03:18:55.502Z,9.71
2022-10-04T03:21:21.707Z,9.41
2022-10-04T03:23:47.805Z,9.39
2022-10-04T03:26:13.900Z,9.42
2022-10-04T03:28:40.012Z,9.39
2022-10-04T03:31:06.203Z,9.34
2022-10-04T03:33:32.337Z,9.28
2022-10-04T03:35:58.973Z,9.29
2022-10-04T03:38:25.057Z,9.35
2022-10-04T03:40:51.172Z,9.46
2022-10-04T03:43:17.279Z,9.54
2022-10-04T03:45:43.421Z,9.60
2022-10-04T03:48:09.533Z,9.69
2022-10-04T03:50:35.625Z,9.76
2022-10-04T03:53:01.726Z,9.75
2022-10-04T03:55:27.813Z,9.77
2022-10-04T03:57:53.961Z,9.82
2022-10-04T04:00:20.051Z,9.86
2022-10-04T04:02:46.496Z,9.94
2022-10-04T04:05:12.697Z,10.02
2022-10-04T04:07:38.797Z,10.11
2022-10-04T04:10:04.927Z,10.15
2022-10-04T04:12:31.051Z,10.09
2022-10-04T04:14:57.313Z,10.17
2022-10-04T04:17:23.410Z,10.18
2022-10-04T04:19:49.533Z,10.12
2022-10-04T04:22:15.635Z,10.12
2022-10-04T04:24:41.723Z,9.92
2022-10-04T04:27:07.817Z,9.77
2022-10-04T04:29:33.908Z,9.56
2022-10-04T04:32:00.162Z,9.57
2022-10-04T04:34:26.388Z,9.57
2022-10-04T04:36:52.501Z,9.49
2022-10-04T04:39:18.594Z,9.43
2022-10-04T04:41:49.514Z,9.44
2022-10-04T04:44:16.510Z,9.54
2022-10-04T04:46:42.683Z,9.56
2022-10-04T04:49:08.804Z,9.65
2022-10-04T04:51:34.890Z,9.76
2022-10-04T04:54:00.985Z,9.76
2022-10-04T04:56:27.095Z,9.82
2022-10-04T04:58:53.193Z,9.86
2022-10-04T05:01:19.342Z,9.94
2022-10-04T05:03:45.851Z,9.87
2022-10-04T05:06:11.938Z,9.76
2022-10-04T05:08:41.410Z,9.65
2022-10-04T05:11:07.773Z,9.66
2022-10-04T05:13:33.861Z,9.52
2022-10-04T05:16:00.031Z,9.45
2022-10-04T05:18:26.196Z,9.31
2022-10-04T05:20:52.301Z,9.31
2022-10-04T05:23:18.525Z,9.38
2022-10-04T05:25:44.633Z,9.43
2022-10-04T05:28:10.786Z,9.33
2022-10-04T05:30:36.913Z,9.26
2022-10-04T05:33:03.041Z,9.25
2022-10-04T05:35:29.137Z,9.28
2022-10-04T05:37:55.249Z,9.16
2022-10-04T05:40:21.901Z,9.30
2022-10-04T05:42:48.093Z,9.30
2022-10-04T05:45:14.260Z,9.23
2022-10-04T05:47:40.609Z,9.36
2022-10-04T05:50:06.725Z,9.38
2022-10-04T05:52:33.978Z,9.42
2022-10-04T05:55:00.102Z,9.42
2022-10-04T05:57:26.261Z,9.43
2022-10-04T05:59:52.373Z,9.55
2022-10-04T06:02:18.561Z,9.64
2022-10-04T06:04:44.770Z,9.55
2022-10-04T06:07:10.873Z,9.28
2022-10-04T06:09:36.972Z,9.22
2022-10-04T06:12:03.069Z,9.37
2022-10-04T06:14:29.153Z,9.52
2022-10-04T06:16:55.312Z,9.54
2022-10-04T06:19:21.458Z,9.59
2022-10-04T06:21:47.555Z,9.69
2022-10-04T06:24:13.681Z,9.65
2022-10-04T06:26:39.778Z,9.64
2022-10-04T06:29:05.891Z,9.75
2022-10-04T06:31:32.205Z,9.89
2022-10-04T06:33:58.295Z,10.02
2022-10-04T06:36:24.453Z,10.12
2022-10-04T06:38:50.592Z,10.21
2022-10-04T06:41:16.677Z,10.22
2022-10-04T06:43:42.827Z,10.19
2022-10-04T06:46:10.028Z,10.16
2022-10-04T06:48:36.187Z,10.30
2022-10-04T06:51:02.291Z,10.37
2022-10-04T06:53:28.495Z,10.34
2022-10-04T06:55:54.639Z,10.37
2022-10-04T06:58:20.720Z,10.23
2022-10-04T07:00:46.918Z,10.23
2022-10-04T07:03:13.339Z,10.34
2022-10-04T07:05:39.513Z,10.41
2022-10-04T07:08:05.673Z,10.45
2022-10-04T07:10:31.783Z,10.48
2022-10-04T07:12:58.068Z,10.45
2022-10-04T07:15:24.184Z,10.55
2022-10-04T07:17:50.289Z,10.61
2022-10-04T07:20:16.383Z,10.64
2022-10-04T07:22:42.509Z,10.60
2022-10-04T07:25:08.610Z,10.73
2022-10-04T07:27:34.713Z,10.70
2022-10-04T07:30:00.826Z,10.64
2022-10-04T07:32:26.978Z,10.81
2022-10-04T07:34:53.076Z,10.84
2022-10-04T07:37:19.202Z,10.94
2022-10-04T07:39:45.304Z,11.01
2022-10-04T07:42:11.393Z,11.08
2022-10-04T07:44:37.901Z,11.16
2022-10-04T07:47:04.213Z,11.44
2022-10-04T07:49:30.344Z,11.40
2022-10-04T07:51:56.539Z,11.36
2022-10-04T07:54:22.714Z,11.44
2022-10-04T07:56:48.971Z,11.50
2022-10-04T07:59:15.122Z,11.58
2022-10-04T08:01:41.767Z,11.69
2022-10-04T08:04:08.122Z,11.70
2022-10-04T08:06:34.239Z,11.73
2022-10-04T08:09:00.341Z,11.78
2022-10-04T08:11:26.432Z,11.78
2022-10-04T08:13:52.686Z,11.89
2022-10-04T08:16:18.853Z,11.98
2022-10-04T08:18:44.948Z,11.89
2022-10-04T08:21:11.066Z,11.89
2022-10-04T08:23:37.178Z,11.87
2022-10-04T08:26:06.010Z,11.94
2022-10-04T08:28:32.170Z,11.96
2022-10-04T08:30:58.323Z,12.02
2022-10-04T08:33:24.456Z,12.13
2022-10-04T08:35:50.566Z,12.17
2022-10-04T08:38:16.653Z,12.22
2022-10-04T08:40:42.748Z,12.34
2022-10-04T08:43:08.941Z,12.34
2022-10-04T08:45:35.037Z,12.42
2022-10-04T08:48:01.471Z,12.33
2022-10-04T08:50:27.857Z,12.42
2022-10-04T08:52:53.972Z,12.50
2022-10-04T08:55:20.122Z,12.53
2022-10-04T08:57:46.245Z,12.53
2022-10-04T09:00:12.650Z,12.47
2022-10-04T09:02:38.769Z,12.65
2022-10-04T09:05:04.928Z,12.71
2022-10-04T09:07:31.026Z,12.75
2022-10-04T09:09:57.113Z,12.79
2022-10-04T09:12:23.515Z,12.90
2022-10-04T09:14:49.603Z,12.94
2022-10-04T09:17:19.784Z,12.92
2022-10-04T09:19:48.040Z,12.92
2022-10-04T09:22:14.136Z,13.13
2022-10-04T09:24:40.223Z,13.37
2022-10-04T09:27:06.349Z,13.60
2022-10-04T09:29:32.445Z,13.64
2022-10-04T09:31:58.541Z,13.71
2022-10-04T09:34:24.653Z,13.61
2022-10-04T09:36:50.750Z,13.82
2022-10-04T09:39:31.258Z,13.89
2022-10-04T09:41:57.556Z,13.94
2022-10-04T09:44:23.661Z,13.97
2022-10-04T09:46:53.304Z,13.99
2022-10-04T09:49:22.344Z,14.02
2022-10-04T09:51:48.426Z,14.07
2022-10-04T09:54:14.508Z,14.15
2022-10-04T09:56:40.950Z,14.12
2022-10-04T09:59:07.285Z,13.88
2022-10-04T10:01:33.414Z,13.93
2022-10-04T10:03:59.538Z,13.99
2022-10-04T10:06:25.665Z,13.98
2022-10-04T10:08:51.752Z,14.02
2022-10-04T10:11:17.866Z,14.41
2022-10-04T10:13:43.972Z,14.52
2022-10-04T10:16:10.084Z,14.61
2022-10-04T10:18:36.203Z,14.59
2022-10-04T10:21:02.322Z,14.70
2022-10-04T10:23:28.411Z,14.73
2022-10-04T10:25:54.507Z,14.72
2022-10-04T10:28:20.660Z,14.84
2022-10-04T10:30:46.895Z,14.89
2022-10-04T10:33:13.072Z,14.93
2022-10-04T10:35:39.171Z,14.98
2022-10-04T10:38:05.272Z,15.00
2022-10-04T10:40:31.379Z,14.97
2022-10-04T10:42:57.468Z,15.09
2022-10-04T10:45:23.558Z,15.09
2022-10-04T10:47:50.187Z,15.15
2022-10-04T10:50:16.265Z,15.26
2022-10-04T10:52:42.369Z,15.28
2022-10-04T10:55:08.514Z,15.31
2022-10-04T10:57:34.609Z,15.37
2022-10-04T11:00:00.701Z,15.43
2022-10-04T11:02:47.665Z,15.48
2022-10-04T11:05:12.888Z,15.61
2022-10-04T11:07:39.011Z,15.71
2022-10-04T11:10:05.111Z,15.77
2022-10-04T11:12:31.204Z,15.80
2022-10-04T11:14:57.303Z,15.86
2022-10-04T11:17:23.397Z,15.89
2022-10-04T11:19:49.497Z,15.73
2022-10-04T11:22:16.095Z,15.70
2022-10-04T11:24:42.175Z,15.75
2022-10-04T11:27:08.262Z,15.81
2022-10-04T11:29:34.366Z,15.85
2022-10-04T11:32:00.461Z,15.91
2022-10-04T11:34:26.553Z,16.02
2022-10-04T11:36:52.664Z,16.21
2022-10-04T11:39:18.777Z,16.40
2022-10-04T11:41:44.872Z,16.43
2022-10-04T11:44:11.011Z,16.41
2022-10-04T11:46:37.129Z,16.23
2022-10-04T11:49:03.254Z,16.14
2022-10-04T11:51:29.364Z,16.22
2022-10-04T11:53:55.478Z,16.33
2022-10-04T11:56:21.577Z,16.37
2022-10-04T11:58:47.684Z,16.42
2022-10-04T12:01:13.773Z,16.46
2022-10-04T12:03:39.918Z,16.53
2022-10-04T12:06:06.062Z,16.54
2022-10-04T12:08:32.168Z,16.60
2022-10-04T12:10:58.261Z,16.69
2022-10-04T12:13:24.368Z,16.79
2022-10-04T12:15:50.517Z,16.78
2022-10-04T12:18:16.639Z,16.85
2022-10-04T12:20:42.758Z,16.92
2022-10-04T12:23:08.849Z,16.95
2022-10-04T12:25:34.944Z,16.97
2022-10-04T12:28:01.092Z,17.12
2022-10-04T12:30:27.237Z,17.02
2022-10-04T12:32:57.794Z,17.03
2022-10-04T12:35:24.374Z,17.09
2022-10-04T12:37:50.455Z,17.14
2022-10-04T12:40:16.622Z,17.13
2022-10-04T12:42:42.746Z,17.21
2022-10-04T12:45:08.843Z,17.31
2022-10-04T12:47:34.947Z,17.32
2022-10-04T12:50:01.420Z,17.33
2022-10-04T12:52:27.542Z,17.34
2022-10-04T12:54:53.630Z,17.36
2022-10-04T12:57:19.744Z,17.42
2022-10-04T12:59:45.841Z,17.47
2022-10-04T13:02:11.964Z,17.53
2022-10-04T13:04:38.118Z,17.59
2022-10-04T13:07:04.201Z,17.61
2022-10-04T13:09:30.280Z,17.63
2022-10-04T13:11:56.400Z,17.71
2022-10-04T13:14:22.498Z,17.76
2022-10-04T13:19:34.699Z,17.84
2022-10-04T13:22:00.795Z,17.88
2022-10-04T13:24:26.891Z,17.91
2022-10-04T13:26:53.365Z,17.89
2022-10-04T13:29:19.466Z,17.92
2022-10-04T13:31:45.943Z,17.96
2022-10-04T13:34:12.227Z,18.04
2022-10-04T13:36:38.319Z,18.07
2022-10-04T13:39:04.411Z,18.06
2022-10-04T13:41:30.539Z,18.05
2022-10-04T13:43:56.666Z,18.12
2022-10-04T13:46:22.771Z,18.16
2022-10-04T13:48:48.879Z,18.19
2022-10-04T13:51:14.975Z,18.12
2022-10-04T13:53:41.063Z,18.12
2022-10-04T13:56:07.161Z,18.10
2022-10-04T13:58:33.258Z,18.16
2022-10-04T14:00:59.388Z,18.18
2022-10-04T14:03:25.538Z,18.13
2022-10-04T14:05:51.698Z,18.15
2022-10-04T14:08:17.792Z,18.16
2022-10-04T14:10:43.910Z,18.15
2022-10-04T14:13:10.005Z,18.12
2022-10-04T14:15:36.101Z,18.13
2022-10-04T14:18:02.204Z,18.13
2022-10-04T14:20:28.306Z,18.28
2022-10-04T14:22:54.414Z,18.22
2022-10-04T14:25:21.611Z,18.13
2022-10-04T14:27:47.811Z,18.22
2022-10-04T14:30:13.909Z,18.49
2022-10-04T14:32:40.514Z,18.41
2022-10-04T14:35:06.629Z,18.42
2022-10-04T14:37:32.722Z,18.50
2022-10-04T14:39:58.832Z,18.62
2022-10-04T14:42:24.928Z,18.74
2022-10-04T14:44:51.007Z,18.89
2022-10-04T14:47:17.118Z,19.11
2022-10-04T14:49:43.233Z,19.25
2022-10-04T14:52:09.348Z,19.42
2022-10-04T14:54:35.453Z,19.59
2022-10-04T14:57:01.527Z,19.72
2022-10-04T14:59:27.631Z,20.09
2022-10-04T15:01:53.741Z,20.22
2022-10-04T15:04:19.915Z,20.36
2022-10-04T15:06:46.344Z,20.75
2022-10-04T15:09:16.046Z,21.05
2022-10-04T15:11:42.144Z,21.00
2022-10-04T15:14:08.233Z,21.27
2022-10-04T15:16:34.412Z,21.68
2022-10-04T15:19:00.566Z,21.89
2022-10-04T15:21:31.461Z,22.35
2022-10-04T15:23:58.429Z,22.28
2022-10-04T15:26:24.529Z,22.52
2022-10-04T15:28:50.625Z,22.63
2022-10-04T15:31:16.839Z,22.40
2022-10-04T15:33:42.941Z,22.70
2022-10-04T15:36:09.218Z,22.81
2022-10-04T15:38:35.358Z,22.85
2022-10-04T15:41:01.437Z,22.81
2022-10-04T15:43:27.527Z,22.71
2022-10-04T15:45:53.690Z,23.54
2022-10-04T15:48:19.847Z,24.03
2022-10-04T15:50:45.940Z,23.47
2022-10-04T15:53:15.042Z,23.92
2022-10-04T15:55:45.070Z,23.59
2022-10-04T15:58:11.152Z,22.55
2022-10-04T16:00:37.705Z,21.51
2022-10-04T16:03:03.793Z,20.78
2022-10-04T16:05:29.870Z,20.53
2022-10-04T16:07:55.992Z,20.32
2022-10-04T16:10:22.072Z,20.06
2022-10-04T16:12:48.163Z,19.92
2022-10-04T16:15:14.286Z,20.55
2022-10-04T16:17:40.388Z,20.61
2022-10-04T16:20:06.486Z,20.18
2022-10-04T16:22:32.600Z,19.81
2022-10-04T16:24:58.680Z,19.77
2022-10-04T16:27:24.760Z,19.39
2022-10-04T16:30:08.067Z,19.20
2022-10-04T16:32:37.410Z,19.14
2022-10-04T16:35:03.562Z,18.92
2022-10-04T16:37:29.657Z,18.80
2022-10-04T16:39:56.009Z,18.63
2022-10-04T16:42:22.445Z,18.50
2022-10-04T16:44:48.528Z,18.27
2022-10-04T16:47:14.630Z,18.15
2022-10-04T16:49:41.456Z,18.12
2022-10-04T16:52:07.650Z,18.06
2022-10-04T16:54:33.736Z,17.94
2022-10-04T16:56:59.829Z,17.74
2022-10-04T16:59:25.929Z,17.70
2022-10-04T17:01:55.186Z,17.53
2022-10-04T17:04:22.615Z,17.46
2022-10-04T17:06:49.201Z,17.37
2022-10-04T17:09:15.537Z,17.54
2022-10-04T17:11:41.781Z,17.53
2022-10-04T17:14:07.883Z,17.44
2022-10-04T17:16:33.985Z,17.39
2022-10-04T17:19:00.252Z,17.27
2022-10-04T17:21:26.331Z,16.83
2022-10-04T17:23:52.417Z,16.80
2022-10-04T17:26:18.517Z,16.74
2022-10-04T17:28:44.603Z,16.68
2022-10-04T17:31:10.761Z,16.57
2022-10-04T17:33:36.898Z,16.58
2022-10-04T17:36:04.976Z,16.46
2022-10-04T17:38:31.114Z,16.41
2022-10-04T17:40:59.749Z,16.29
2022-10-04T17:43:25.885Z,16.24
2022-10-04T17:45:51.999Z,16.15
2022-10-04T17:48:18.138Z,16.08
2022-10-04T17:50:44.220Z,16.03
2022-10-04T17:53:10.311Z,15.92
2022-10-04T17:55:36.428Z,15.76
2022-10-04T17:58:02.802Z,15.62
2022-10-04T18:00:28.917Z,15.57
2022-10-04T18:02:55.079Z,15.49
2022-10-04T18:05:21.203Z,15.39
2022-10-04T18:07:47.369Z,15.31
2022-10-04T18:10:13.467Z,15.37
2022-10-04T18:12:39.590Z,15.29
2022-10-04T18:15:05.698Z,15.31
2022-10-04T18:17:31.817Z,15.34
2022-10-04T18:19:57.980Z,15.30
2022-10-04T18:22:24.068Z,15.29
2022-10-04T18:24:50.247Z,15.27
2022-10-04T18:27:16.321Z,15.19
2022-10-04T18:29:42.425Z,15.20
2022-10-04T18:32:08.626Z,15.21
2022-10-04T18:34:34.765Z,15.26
2022-10-04T18:37:00.863Z,15.23
2022-10-04T18:39:26.973Z,15.21
2022-10-04T18:41:53.073Z,15.16
2022-10-04T18:44:19.204Z,15.18
2022-10-04T18:46:45.684Z,15.08
2022-10-04T18:49:12.098Z,15.18
2022-10-04T18:51:38.186Z,15.17
2022-10-04T18:54:04.279Z,15.12
2022-10-04T18:56:33.942Z,15.14
2022-10-04T18:59:00.579Z,15.01
2022-10-04T19:01:26.895Z,15.01
2022-10-04T19:03:53.214Z,14.99
2022-10-04T19:06:19.324Z,14.98
2022-10-04T19:08:46.015Z,14.96
2022-10-04T19:11:12.095Z,14.97
2022-10-04T19:13:38.331Z,14.93
2022-10-04T19:16:04.488Z,14.97
2022-10-04T19:18:30.993Z,14.97
2022-10-04T19:20:57.235Z,14.97
2022-10-04T19:23:23.425Z,14.97
2022-10-04T19:26:17.575Z,14.94
2022-10-04T19:28:35.871Z,14.95
2022-10-04T19:31:02.123Z,14.95
2022-10-04T19:33:28.327Z,14.94
2022-10-04T19:35:54.424Z,14.96
2022-10-04T19:38:20.582Z,14.95
2022-10-04T19:40:46.697Z,14.95
2022-10-04T19:43:12.960Z,14.94
2022-10-04T19:45:39.116Z,14.90
2022-10-04T19:48:05.261Z,14.93
2022-10-04T19:50:31.506Z,14.87
2022-10-04T19:52:57.624Z,14.83
2022-10-04T19:55:23.729Z,14.82
2022-10-04T19:57:49.855Z,14.72
2022-10-04T20:00:15.993Z,14.62
2022-10-04T20:02:47.437Z,14.63
2022-10-04T20:05:14.792Z,14.57
2022-10-04T20:07:40.886Z,14.59
2022-10-04T20:10:07.014Z,14.59
2022-10-04T20:12:33.482Z,14.56
2022-10-04T20:14:59.584Z,14.54
2022-10-04T20:17:25.675Z,14.57
2022-10-04T20:19:51.827Z,14.55
2022-10-04T20:22:17.922Z,14.56
2022-10-04T20:24:44.021Z,14.53
2022-10-04T20:27:10.150Z,14.52
2022-10-04T20:29:43.796Z,14.48
2022-10-04T20:32:09.894Z,14.53
2022-10-04T20:34:36.031Z,14.46
2022-10-04T20:37:02.163Z,14.46
2022-10-04T20:39:28.257Z,14.37
2022-10-04T20:41:54.401Z,14.35
2022-10-04T20:44:20.499Z,14.36
2022-10-04T20:46:47.117Z,14.33
2022-10-04T20:49:13.686Z,14.35
2022-10-04T20:51:39.773Z,14.30
2022-10-04T20:54:05.905Z,14.30
2022-10-04T20:56:32.051Z,14.31
2022-10-04T20:58:58.181Z,14.30
2022-10-04T21:01:24.332Z,14.28
2022-10-04T21:03:50.476Z,14.25
2022-10-04T21:06:16.595Z,14.24
2022-10-04T21:08:42.777Z,14.21
2022-10-04T21:11:08.908Z,14.25
2022-10-04T21:13:35.012Z,14.23
2022-10-04T21:16:01.326Z,14.19
2022-10-04T21:18:27.549Z,14.19
2022-10-04T21:20:53.635Z,14.18
2022-10-04T21:23:19.727Z,14.14
2022-10-04T21:25:45.835Z,14.22
2022-10-04T21:28:11.976Z,14.12
2022-10-04T21:30:38.121Z,14.11
2022-10-04T21:33:04.527Z,14.07
2022-10-04T21:35:30.638Z,14.10
2022-10-04T21:37:56.736Z,14.13
2022-10-04T21:40:22.837Z,14.06
2022-10-04T21:42:48.941Z,14.06
2022-10-04T21:45:15.034Z,14.03
2022-10-04T21:47:41.144Z,14.07
2022-10-04T21:50:07.220Z,14.00
2022-10-04T21:52:33.321Z,13.95
2022-10-04T21:54:59.420Z,13.93
2022-10-04T21:57:25.512Z,13.91
2022-10-04T21:59:51.603Z,13.93
2022-10-04T22:02:18.265Z,13.92
2022-10-04T22:04:44.431Z,13.94
2022-10-04T22:07:10.538Z,13.90
2022-10-04T22:09:36.646Z,13.81
2022-10-04T22:12:02.723Z,13.82
2022-10-04T22:14:28.815Z,13.82
2022-10-04T22:16:55.003Z,13.80
2022-10-04T22:19:21.155Z,13.76
2022-10-04T22:21:47.252Z,13.71
2022-10-04T22:24:13.352Z,13.69
2022-10-04T22:26:39.452Z,13.73
2022-10-04T22:29:05.543Z,13.64
2022-10-04T22:31:31.690Z,13.67
2022-10-04T22:33:57.818Z,13.79
2022-10-04T22:36:23.909Z,13.78
2022-10-04T22:38:49.999Z,13.80
2022-10-04T22:41:16.112Z,13.73
2022-10-04T22:43:42.207Z,13.65
2022-10-04T22:46:08.335Z,13.61
2022-10-04T22:48:34.452Z,13.59
2022-10-04T22:51:00.565Z,13.56
2022-10-04T22:53:26.714Z,13.57
2022-10-04T22:55:52.813Z,13.56
2022-10-04T22:58:18.905Z,13.58
2022-10-04T23:00:45.012Z,13.55
2022-10-04T23:03:11.187Z,13.55
2022-10-04T23:05:37.326Z,13.64
2022-10-04T23:08:03.437Z,13.62
2022-10-04T23:10:29.528Z,13.59
2022-10-04T23:12:55.624Z,13.62
2022-10-04T23:15:21.732Z,13.61
2022-10-04T23:17:47.829Z,13.52
2022-10-04T23:20:14.093Z,13.48
2022-10-04T23:22:40.205Z,13.40
2022-10-04T23:25:06.307Z,13.41
2022-10-04T23:27:32.399Z,13.37
2022-10-04T23:29:58.498Z,13.39
2022-10-04T23:32:24.596Z,13.41
2022-10-04T23:34:55.716Z,13.41
2022-10-04T23:37:22.711Z,13.34
2022-10-04T23:39:48.805Z,13.45
2022-10-04T23:42:14.896Z,13.46
2022-10-04T23:44:41.006Z,13.46
2022-10-04T23:47:07.094Z,13.49
2022-10-04T23:49:33.196Z,13.44
2022-10-04T23:51:59.330Z,13.42
2022-10-04T23:54:25.420Z,13.37
2022-10-04T23:56:51.505Z,13.40
2022-10-04T23:59:17.647Z,13.31
